Time;durP1;ratioP1;P1;durP2;ratioP2;P2;SDS_P1;SDS_P2;PMS_P1;PMS_P2;Temp;Humidity;BMP_temperature;BMP_pressure;BME280_temperature;BME280_humidity;BME280_pressure;Samples;Min_cycle;Max_cycle;Signal;HPM_P1;HPM_P2
2024/04/13 00:00:08;;;;;;;11.85;5.50;;;17.50;99.90;;;;;;2260971;26;20076;-70
2024/04/13 00:01:10;;;;;;;8.02;5.03;;;17.50;99.90;;;;;;2260524;26;20326;-70
2024/04/13 00:02:11;;;;;;;14.45;5.55;;;17.50;99.90;;;;;;2258101;26;19994;-69
2024/04/13 00:03:11;;;;;;;8.18;5.00;;;17.50;99.90;;;;;;2260110;26;20006;-70
2024/04/13 00:04:12;;;;;;;9.57;5.68;;;17.50;99.90;;;;;;2259198;26;20538;-70
2024/04/13 00:05:12;;;;;;;11.20;5.57;;;17.50;99.90;;;;;;2259709;26;20404;-70
2024/04/13 00:06:13;;;;;;;7.72;5.03;;;17.50;99.90;;;;;;2255114;26;19998;-69
2024/04/13 00:07:13;;;;;;;6.43;4.72;;;17.50;99.90;;;;;;2261640;26;19994;-70
2024/04/13 00:08:16;;;;;;;6.70;4.95;;;17.50;99.90;;;;;;2258451;26;19995;-69
2024/04/13 00:09:17;;;;;;;9.43;5.68;;;17.50;99.90;;;;;;2261646;26;20026;-70
2024/04/13 00:10:17;;;;;;;6.38;4.55;;;17.50;99.90;;;;;;2250099;26;20083;-69
2024/04/13 00:11:17;;;;;;;9.02;5.55;;;17.50;99.90;;;;;;2251515;26;20006;-70
2024/04/13 00:12:18;;;;;;;8.18;5.68;;;17.50;99.90;;;;;;2248921;26;20463;-69
2024/04/13 00:13:19;;;;;;;9.93;6.18;;;17.40;99.90;;;;;;2254467;26;20336;-69
2024/04/13 00:14:19;;;;;;;7.55;4.93;;;17.40;99.90;;;;;;2256683;26;19998;-70
2024/04/13 00:15:20;;;;;;;9.50;5.05;;;17.40;99.90;;;;;;2261092;26;20006;-70
2024/04/13 00:16:20;;;;;;;8.20;5.07;;;17.40;99.90;;;;;;2259870;26;20002;-71
2024/04/13 00:17:22;;;;;;;8.70;5.13;;;17.30;99.90;;;;;;2258382;26;20013;-70
2024/04/13 00:18:23;;;;;;;9.27;5.10;;;17.40;99.90;;;;;;2258902;26;20005;-71
2024/04/13 00:19:23;;;;;;;8.82;4.82;;;17.30;99.90;;;;;;2260333;26;19998;-70
2024/04/13 00:20:24;;;;;;;8.63;4.90;;;17.30;99.90;;;;;;2261042;26;20379;-70
2024/04/13 00:21:24;;;;;;;9.05;5.03;;;17.30;99.90;;;;;;2257776;26;19995;-70
2024/04/13 00:22:25;;;;;;;13.80;5.40;;;17.30;99.90;;;;;;2249653;26;20014;-71
2024/04/13 00:23:26;;;;;;;10.50;4.55;;;17.30;99.90;;;;;;2251018;26;19995;-71
2024/04/13 00:24:26;;;;;;;9.23;5.13;;;17.30;99.90;;;;;;2257578;26;19998;-71
2024/04/13 00:25:30;;;;;;;7.63;5.10;;;17.30;99.90;;;;;;2257042;26;20004;-70
2024/04/13 00:26:32;;;;;;;12.32;4.80;;;17.30;99.90;;;;;;2261732;26;19999;-70
2024/04/13 00:27:34;;;;;;;8.57;5.25;;;17.20;99.90;;;;;;2258407;26;20530;-71
2024/04/13 00:28:34;;;;;;;8.45;5.05;;;17.20;99.90;;;;;;2256830;26;20002;-71
2024/04/13 00:29:35;;;;;;;5.30;4.47;;;17.20;99.90;;;;;;2255167;26;20046;-70
2024/04/13 00:30:36;;;;;;;7.90;5.32;;;17.20;99.90;;;;;;2260744;26;19998;-70
2024/04/13 00:31:36;;;;;;;8.40;5.40;;;17.20;99.90;;;;;;2260163;26;20006;-71
2024/04/13 00:32:37;;;;;;;6.65;5.05;;;17.20;99.90;;;;;;2258125;26;19999;-70
2024/04/13 00:33:38;;;;;;;8.40;4.32;;;17.20;99.90;;;;;;2256327;26;20009;-71
2024/04/13 00:34:39;;;;;;;7.03;4.43;;;17.20;99.90;;;;;;2259300;26;20013;-71
2024/04/13 00:35:39;;;;;;;7.35;4.65;;;17.20;99.90;;;;;;2260352;26;19998;-71
2024/04/13 00:36:40;;;;;;;7.15;4.85;;;17.20;99.90;;;;;;2258730;26;20005;-71
2024/04/13 00:37:40;;;;;;;8.45;5.43;;;17.10;99.90;;;;;;2260362;26;19995;-71
2024/04/13 00:38:41;;;;;;;7.00;4.78;;;17.10;99.90;;;;;;2245988;26;19998;-70
2024/04/13 00:39:42;;;;;;;6.90;5.10;;;17.10;99.90;;;;;;2241249;26;20930;-70
2024/04/13 00:40:42;;;;;;;9.95;5.38;;;17.10;99.90;;;;;;2260464;26;19999;-71
2024/04/13 00:41:43;;;;;;;6.47;4.50;;;17.10;99.90;;;;;;2258342;26;20005;-71
2024/04/13 00:42:43;;;;;;;11.35;4.82;;;17.10;99.90;;;;;;2261423;26;19994;-71
2024/04/13 00:43:46;;;;;;;10.13;5.55;;;17.10;99.90;;;;;;2259363;26;19999;-70
2024/04/13 00:44:46;;;;;;;9.77;5.20;;;17.10;99.90;;;;;;2257959;26;20005;-71
2024/04/13 00:45:47;;;;;;;8.98;4.63;;;17.00;99.90;;;;;;2241714;26;20065;-70
2024/04/13 00:46:49;;;;;;;4.95;4.22;;;17.00;99.90;;;;;;2242022;26;19995;-71
2024/04/13 00:47:52;;;;;;;5.82;4.85;;;17.00;99.90;;;;;;2260680;26;20006;-70
2024/04/13 00:48:53;;;;;;;7.55;4.82;;;17.00;99.90;;;;;;2258677;26;20363;-71
2024/04/13 00:49:55;;;;;;;8.50;5.25;;;17.00;99.90;;;;;;2259094;26;20001;-70
2024/04/13 00:51:04;;;;;;;6.30;4.88;;;17.00;99.90;;;;;;2260400;26;20025;-70
2024/04/13 00:52:11;;;;;;;9.95;5.25;;;17.00;99.90;;;;;;2253548;26;20351;-70
2024/04/13 00:53:13;;;;;;;7.97;4.88;;;17.00;99.90;;;;;;2253495;26;20015;-71
2024/04/13 00:54:16;;;;;;;9.50;5.25;;;16.90;99.90;;;;;;2256158;26;20342;-70
2024/04/13 00:55:17;;;;;;;9.02;5.20;;;16.90;99.90;;;;;;2257341;26;20002;-71
2024/04/13 00:56:18;;;;;;;8.75;4.93;;;16.90;99.90;;;;;;2260327;26;20022;-71
2024/04/13 00:57:19;;;;;;;9.38;5.05;;;16.90;99.90;;;;;;2260561;26;20003;-70
2024/04/13 00:58:26;;;;;;;8.00;5.25;;;16.90;99.90;;;;;;2260019;26;20765;-71
2024/04/13 00:59:26;;;;;;;9.48;5.20;;;16.90;99.90;;;;;;2255117;26;19998;-71
2024/04/13 01:00:27;;;;;;;7.22;4.95;;;16.90;99.90;;;;;;2259244;26;19998;-70
2024/04/13 01:01:27;;;;;;;6.28;4.68;;;16.90;99.90;;;;;;2256719;26;20010;-71
2024/04/13 01:02:29;;;;;;;9.23;5.63;;;16.90;99.90;;;;;;2262278;26;19998;-71
2024/04/13 01:03:29;;;;;;;9.15;5.45;;;16.90;99.90;;;;;;2259942;26;20665;-71
2024/04/13 01:04:32;;;;;;;8.10;5.25;;;16.90;99.90;;;;;;2257941;26;20107;-71
2024/04/13 01:05:34;;;;;;;9.65;5.05;;;16.90;99.90;;;;;;2257432;26;19999;-70
2024/04/13 01:06:38;;;;;;;9.77;5.95;;;16.90;99.90;;;;;;2251184;26;20003;-70
2024/04/13 01:07:40;;;;;;;8.30;5.20;;;16.90;99.90;;;;;;2251049;26;20000;-70
2024/04/13 01:08:40;;;;;;;6.97;4.85;;;16.80;99.90;;;;;;2260167;26;20071;-70
2024/04/13 01:09:41;;;;;;;8.93;5.22;;;16.80;99.90;;;;;;2259282;26;20014;-71
2024/04/13 01:10:43;;;;;;;10.60;5.40;;;16.80;99.90;;;;;;2249533;26;20003;-71
2024/04/13 01:11:44;;;;;;;9.63;4.95;;;16.80;99.90;;;;;;2251851;26;20049;-69
2024/04/13 01:12:46;;;;;;;6.35;4.72;;;16.80;99.90;;;;;;2258906;26;20011;-70
2024/04/13 01:13:47;;;;;;;9.13;5.07;;;16.80;99.90;;;;;;2258596;26;19998;-71
2024/04/13 01:14:48;;;;;;;8.18;5.15;;;16.80;99.90;;;;;;2261213;26;19995;-71
2024/04/13 01:15:49;;;;;;;8.10;5.20;;;16.80;99.90;;;;;;2259769;26;20038;-70
2024/04/13 01:16:49;;;;;;;8.40;5.22;;;16.80;99.90;;;;;;2262663;26;20364;-71
2024/04/13 01:17:50;;;;;;;8.95;5.05;;;16.80;99.90;;;;;;2245054;26;20034;-70
2024/04/13 01:18:52;;;;;;;8.20;4.78;;;16.80;99.90;;;;;;2245932;26;20064;-70
2024/04/13 01:19:52;;;;;;;5.18;4.30;;;16.80;99.90;;;;;;2258633;26;19998;-70
2024/04/13 01:20:53;;;;;;;7.45;4.78;;;16.80;99.90;;;;;;2260004;26;20009;-71
2024/04/13 01:21:54;;;;;;;10.63;5.32;;;16.80;99.90;;;;;;2261374;26;20002;-71
2024/04/13 01:22:56;;;;;;;11.18;5.13;;;16.80;99.90;;;;;;2259792;26;19995;-71
2024/04/13 01:24:04;;;;;;;9.05;4.65;;;16.80;99.90;;;;;;2258760;26;20006;-71
2024/04/13 01:25:05;;;;;;;10.93;5.30;;;16.80;99.90;;;;;;2258128;26;20003;-70
2024/04/13 01:26:07;;;;;;;9.23;5.13;;;16.70;99.90;;;;;;2262092;26;21071;-71
2024/04/13 01:27:09;;;;;;;7.50;4.80;;;16.70;99.90;;;;;;2260533;26;20046;-70
2024/04/13 01:28:12;;;;;;;6.63;4.53;;;16.80;99.90;;;;;;2260256;26;20455;-70
2024/04/13 01:29:13;;;;;;;9.80;5.28;;;16.70;99.90;;;;;;2257965;26;20074;-71
2024/04/13 01:30:16;;;;;;;9.38;5.50;;;16.70;99.90;;;;;;2261198;26;20075;-71
2024/04/13 01:31:18;;;;;;;11.57;5.28;;;16.70;99.90;;;;;;2258949;26;20459;-71
2024/04/13 01:32:18;;;;;;;11.00;4.78;;;16.70;99.90;;;;;;2260406;26;20014;-71
2024/04/13 01:33:19;;;;;;;11.80;5.07;;;16.70;99.90;;;;;;2257824;26;20005;-70
2024/04/13 01:34:19;;;;;;;9.52;5.18;;;16.70;99.90;;;;;;2257947;26;20018;-70
2024/04/13 01:35:20;;;;;;;9.20;5.10;;;16.70;99.90;;;;;;2261014;26;20010;-70
2024/04/13 01:36:22;;;;;;;11.25;5.15;;;16.70;99.90;;;;;;2259625;26;20068;-70
2024/04/13 01:37:22;;;;;;;9.57;5.07;;;16.70;99.90;;;;;;2257778;26;20006;-70
2024/04/13 01:38:23;;;;;;;7.55;4.88;;;16.70;99.90;;;;;;2258131;26;20013;-71
2024/04/13 01:39:23;;;;;;;7.57;4.38;;;16.70;99.90;;;;;;2259745;26;19998;-70
2024/04/13 01:40:24;;;;;;;9.82;5.35;;;16.70;99.90;;;;;;2259616;26;20114;-71
2024/04/13 01:41:25;;;;;;;7.43;4.68;;;16.70;99.90;;;;;;2260059;26;20013;-71
2024/04/13 01:42:25;;;;;;;11.90;5.28;;;16.70;99.90;;;;;;2260985;26;19999;-70
2024/04/13 01:43:26;;;;;;;8.77;5.00;;;16.70;99.90;;;;;;2256573;26;20002;-71
2024/04/13 01:44:27;;;;;;;10.60;5.63;;;16.70;99.90;;;;;;2249894;26;20073;-71
2024/04/13 01:45:27;;;;;;;8.68;5.10;;;16.70;99.90;;;;;;2250111;26;20018;-71
2024/04/13 01:46:28;;;;;;;10.13;5.15;;;16.70;99.90;;;;;;2248496;26;20003;-69
2024/04/13 01:47:29;;;;;;;9.02;4.65;;;16.70;99.90;;;;;;2247493;26;20006;-69
2024/04/13 01:48:29;;;;;;;11.02;5.47;;;16.70;99.90;;;;;;2260996;26;20483;-70
2024/04/13 01:49:30;;;;;;;13.70;6.00;;;16.70;99.90;;;;;;2259693;26;20002;-69
2024/04/13 01:50:30;;;;;;;8.18;4.20;;;16.70;99.90;;;;;;2262364;26;19998;-69
2024/04/13 01:51:32;;;;;;;8.48;5.00;;;16.70;99.90;;;;;;2261476;26;20431;-69
2024/04/13 01:52:33;;;;;;;7.97;4.82;;;16.70;99.90;;;;;;2262758;26;20005;-70
2024/04/13 01:53:33;;;;;;;9.25;5.18;;;16.70;99.90;;;;;;2258119;26;20484;-69
2024/04/13 01:54:34;;;;;;;8.10;5.10;;;16.70;99.90;;;;;;2260355;26;20753;-70
2024/04/13 01:55:34;;;;;;;7.75;4.50;;;16.70;99.90;;;;;;2245758;26;20006;-70
2024/04/13 01:56:35;;;;;;;8.27;5.43;;;16.70;99.90;;;;;;2245361;26;20003;-70
2024/04/13 01:57:35;;;;;;;8.30;5.18;;;16.70;99.90;;;;;;2260637;26;19995;-70
2024/04/13 01:58:36;;;;;;;7.30;4.32;;;16.70;99.90;;;;;;2252660;26;20478;-69
2024/04/13 01:59:36;;;;;;;10.35;4.80;;;16.70;99.90;;;;;;2248511;26;20369;-69
2024/04/13 02:00:37;;;;;;;8.07;4.07;;;16.70;99.90;;;;;;2257459;26;19999;-69
2024/04/13 02:01:38;;;;;;;7.28;4.65;;;16.70;99.90;;;;;;2255932;26;20014;-69
2024/04/13 02:02:39;;;;;;;14.23;5.55;;;16.70;99.90;;;;;;2258279;26;20006;-69
2024/04/13 02:03:39;;;;;;;9.50;4.88;;;16.60;99.90;;;;;;2264097;26;20010;-69
2024/04/13 02:04:40;;;;;;;7.40;4.93;;;16.70;99.90;;;;;;2248901;26;20006;-69
2024/04/13 02:05:41;;;;;;;11.57;4.70;;;16.70;99.90;;;;;;2250460;26;20443;-70
2024/04/13 02:06:41;;;;;;;10.95;5.05;;;16.60;99.90;;;;;;2261141;26;20343;-69
2024/04/13 02:07:42;;;;;;;6.25;4.47;;;16.60;99.90;;;;;;2263071;26;20099;-70
2024/04/13 02:08:42;;;;;;;7.40;4.85;;;16.60;99.90;;;;;;2264534;26;20601;-70
2024/04/13 02:09:43;;;;;;;12.80;5.10;;;16.60;99.90;;;;;;2258652;26;20669;-70
2024/04/13 02:10:44;;;;;;;6.30;4.28;;;16.70;99.90;;;;;;2260375;26;20014;-69
2024/04/13 02:11:45;;;;;;;7.78;4.35;;;16.60;99.90;;;;;;2257561;26;19998;-69
2024/04/13 02:12:46;;;;;;;8.35;4.20;;;16.60;99.90;;;;;;2260485;26;19999;-69
2024/04/13 02:13:46;;;;;;;9.93;5.18;;;16.60;99.90;;;;;;2260345;26;19998;-69
2024/04/13 02:14:47;;;;;;;7.45;4.65;;;16.60;99.90;;;;;;2261062;26;21085;-69
2024/04/13 02:15:47;;;;;;;7.40;4.90;;;16.60;99.90;;;;;;2259872;26;19995;-72
2024/04/13 02:16:50;;;;;;;7.38;4.68;;;16.60;99.90;;;;;;2260784;26;20002;-69
2024/04/13 02:17:51;;;;;;;9.98;5.25;;;16.60;99.90;;;;;;2259951;26;20010;-69
2024/04/13 02:18:52;;;;;;;7.43;4.50;;;16.60;99.90;;;;;;2259923;26;20050;-69
2024/04/13 02:19:52;;;;;;;7.80;5.10;;;16.60;99.90;;;;;;2259900;26;20022;-69
2024/04/13 02:20:55;;;;;;;6.75;4.55;;;16.60;99.90;;;;;;2263716;26;20014;-69
2024/04/13 02:21:56;;;;;;;7.00;4.78;;;16.60;99.90;;;;;;2261192;26;20003;-71
2024/04/13 02:22:56;;;;;;;10.40;5.20;;;16.60;99.90;;;;;;2261516;26;20018;-71
2024/04/13 02:23:57;;;;;;;7.75;5.10;;;16.60;99.90;;;;;;2258687;26;20010;-70
2024/04/13 02:24:58;;;;;;;6.05;4.40;;;16.60;99.90;;;;;;2260857;26;20021;-71
2024/04/13 02:26:00;;;;;;;8.50;4.30;;;16.60;99.90;;;;;;2258571;26;20008;-72
2024/04/13 02:27:02;;;;;;;7.38;4.55;;;16.60;99.90;;;;;;2261672;26;19998;-72
2024/04/13 02:28:04;;;;;;;8.27;4.93;;;16.50;99.90;;;;;;2259192;26;20013;-71
2024/04/13 02:29:04;;;;;;;8.63;4.95;;;16.60;99.90;;;;;;2259727;26;19999;-71
2024/04/13 02:30:07;;;;;;;8.85;4.55;;;16.60;99.90;;;;;;2257998;26;20049;-70
2024/04/13 02:31:08;;;;;;;8.02;5.35;;;16.60;99.90;;;;;;2256358;26;19995;-70
2024/04/13 02:32:09;;;;;;;8.10;4.70;;;16.50;99.90;;;;;;2258811;26;20471;-72
2024/04/13 02:33:09;;;;;;;5.75;4.53;;;16.60;99.90;;;;;;2262394;26;20468;-71
2024/04/13 02:34:10;;;;;;;5.35;4.13;;;16.50;99.90;;;;;;2259733;26;20274;-71
2024/04/13 02:35:10;;;;;;;6.57;4.22;;;16.50;99.90;;;;;;2259364;26;20010;-71
2024/04/13 02:36:11;;;;;;;5.60;4.15;;;16.50;99.90;;;;;;2261308;26;20740;-70
2024/04/13 02:37:12;;;;;;;7.80;4.47;;;16.50;99.90;;;;;;2251339;26;20006;-71
2024/04/13 02:38:14;;;;;;;8.38;4.32;;;16.50;99.90;;;;;;2252382;26;20674;-71
2024/04/13 02:39:18;;;;;;;5.90;4.70;;;16.50;99.90;;;;;;2257355;26;20042;-71
2024/04/13 02:40:23;;;;;;;7.75;3.97;;;16.50;99.90;;;;;;2257296;26;20017;-70
2024/04/13 02:41:24;;;;;;;7.30;4.55;;;16.50;99.90;;;;;;2261209;26;20042;-71
2024/04/13 02:42:24;;;;;;;11.45;4.65;;;16.50;99.90;;;;;;2259932;26;20014;-71
2024/04/13 02:43:31;;;;;;;6.95;4.57;;;16.50;99.90;;;;;;2252054;26;20414;-71
2024/04/13 02:44:32;;;;;;;6.05;4.35;;;16.40;99.90;;;;;;2248886;26;20018;-71
2024/04/13 02:45:35;;;;;;;8.55;4.38;;;16.40;99.90;;;;;;2257212;26;20046;-70
2024/04/13 02:46:35;;;;;;;10.32;4.22;;;16.40;99.90;;;;;;2259203;26;20017;-71
2024/04/13 02:47:37;;;;;;;6.65;4.15;;;16.40;99.90;;;;;;2253496;26;20002;-71
2024/04/13 02:48:39;;;;;;;5.45;4.65;;;16.40;99.90;;;;;;2258433;26;19999;-71
2024/04/13 02:49:40;;;;;;;7.63;4.75;;;16.40;99.90;;;;;;2261648;26;20006;-71
2024/04/13 02:50:40;;;;;;;8.27;5.13;;;16.40;99.90;;;;;;2255907;26;19994;-71
2024/04/13 02:51:41;;;;;;;9.82;4.45;;;16.40;99.90;;;;;;2258160;26;20335;-71
2024/04/13 02:52:41;;;;;;;9.52;4.75;;;16.40;99.90;;;;;;2260033;26;20003;-71
2024/04/13 02:53:44;;;;;;;6.03;4.22;;;16.40;99.90;;;;;;2244963;26;20081;-71
2024/04/13 02:54:44;;;;;;;8.82;4.70;;;16.30;99.90;;;;;;2243632;26;20006;-71
2024/04/13 02:55:45;;;;;;;6.30;5.22;;;16.40;99.90;;;;;;2259896;26;20010;-71
2024/04/13 02:56:45;;;;;;;7.00;4.65;;;16.40;99.90;;;;;;2257693;26;20067;-71
2024/04/13 02:57:46;;;;;;;7.55;4.38;;;16.30;99.90;;;;;;2258202;26;20532;-71
2024/04/13 02:58:47;;;;;;;9.13;4.82;;;16.30;99.90;;;;;;2258477;26;19994;-71
2024/04/13 02:59:48;;;;;;;9.45;4.53;;;16.30;99.90;;;;;;2258575;26;19995;-72
2024/04/13 03:00:59;;;;;;;8.15;4.97;;;16.30;99.90;;;;;;2263460;26;19994;-71
2024/04/13 03:02:00;;;;;;;9.93;4.72;;;16.30;99.90;;;;;;2258503;26;20068;-71
2024/04/13 03:03:00;;;;;;;8.10;4.93;;;16.30;99.90;;;;;;2258390;26;20067;-71
2024/04/13 03:04:01;;;;;;;10.23;4.93;;;16.30;99.90;;;;;;2259975;26;19999;-70
2024/04/13 03:05:03;;;;;;;8.35;4.85;;;16.30;99.90;;;;;;2244440;26;20017;-70
2024/04/13 03:06:09;;;;;;;7.22;4.50;;;16.30;99.90;;;;;;2246057;26;20072;-71
2024/04/13 03:07:09;;;;;;;6.30;4.63;;;16.20;99.90;;;;;;2250819;26;20077;-70
2024/04/13 03:08:11;;;;;;;7.85;4.45;;;16.20;99.90;;;;;;2251900;26;20083;-71
2024/04/13 03:09:12;;;;;;;6.63;4.50;;;16.20;99.90;;;;;;2258740;26;19998;-71
2024/04/13 03:10:13;;;;;;;4.60;4.10;;;16.20;99.90;;;;;;2263530;26;20013;-71
2024/04/13 03:11:14;;;;;;;7.20;4.22;;;16.20;99.90;;;;;;2260639;26;20042;-69
2024/04/13 03:12:15;;;;;;;6.47;4.35;;;16.20;99.90;;;;;;2259803;26;20400;-69
2024/04/13 03:13:15;;;;;;;7.07;4.50;;;16.20;99.90;;;;;;2260338;26;19999;-69
2024/04/13 03:14:16;;;;;;;8.52;4.97;;;16.20;99.90;;;;;;2261047;26;21977;-69
2024/04/13 03:15:17;;;;;;;5.97;4.78;;;16.20;99.90;;;;;;2245690;26;19999;-68
2024/04/13 03:16:18;;;;;;;7.95;5.10;;;16.20;99.90;;;;;;2246171;26;20021;-69
2024/04/13 03:17:18;;;;;;;6.85;4.18;;;16.20;99.90;;;;;;2260875;26;20032;-69
2024/04/13 03:18:19;;;;;;;5.95;4.60;;;16.20;99.90;;;;;;2259500;26;20022;-68
2024/04/13 03:19:19;;;;;;;12.30;4.53;;;16.20;99.90;;;;;;2259584;26;19994;-69
2024/04/13 03:20:20;;;;;;;7.05;4.80;;;16.10;99.90;;;;;;2262077;26;20002;-69
2024/04/13 03:21:20;;;;;;;7.57;4.60;;;16.10;99.90;;;;;;2261311;26;20070;-69
2024/04/13 03:22:21;;;;;;;7.45;4.60;;;16.10;99.90;;;;;;2257821;26;20035;-69
2024/04/13 03:23:21;;;;;;;7.35;4.97;;;16.10;99.90;;;;;;2242207;26;20513;-69
2024/04/13 03:24:22;;;;;;;13.73;6.88;;;16.10;99.90;;;;;;2245936;26;20039;-69
2024/04/13 03:25:22;;;;;;;7.97;5.47;;;16.10;99.90;;;;;;2259843;26;20022;-69
2024/04/13 03:26:23;;;;;;;8.30;5.32;;;16.10;99.90;;;;;;2258994;26;19994;-69
2024/04/13 03:27:24;;;;;;;7.95;4.90;;;16.10;99.90;;;;;;2258409;26;20540;-69
2024/04/13 03:28:30;;;;;;;9.13;5.20;;;16.10;99.90;;;;;;2259474;26;20008;-69
2024/04/13 03:29:31;;;;;;;6.78;4.68;;;16.10;99.90;;;;;;2261790;26;20463;-69
2024/04/13 03:30:31;;;;;;;8.90;4.75;;;16.10;99.90;;;;;;2258738;26;20746;-69
2024/04/13 03:31:32;;;;;;;6.97;5.00;;;16.10;99.90;;;;;;2261297;26;19995;-68
2024/04/13 03:32:32;;;;;;;10.70;5.13;;;16.10;99.90;;;;;;2258318;26;20005;-69
2024/04/13 03:33:33;;;;;;;6.55;5.07;;;16.10;99.90;;;;;;2260271;26;19999;-69
2024/04/13 03:34:34;;;;;;;9.07;5.22;;;16.00;99.90;;;;;;2258970;26;20038;-68
2024/04/13 03:35:40;;;;;;;8.70;5.00;;;16.10;99.90;;;;;;2256173;26;20039;-69
2024/04/13 03:36:41;;;;;;;6.43;4.80;;;16.10;99.90;;;;;;2261675;26;20010;-70
2024/04/13 03:37:41;;;;;;;7.53;5.18;;;16.10;99.90;;;;;;2262713;26;19999;-69
2024/04/13 03:38:42;;;;;;;5.78;4.53;;;16.10;99.90;;;;;;2257864;26;20001;-69
2024/04/13 03:39:42;;;;;;;8.52;5.68;;;16.00;99.90;;;;;;2259676;26;20006;-69
2024/04/13 03:40:46;;;;;;;8.50;5.05;;;16.10;99.90;;;;;;2259143;26;20005;-69
2024/04/13 03:41:48;;;;;;;9.60;5.43;;;16.00;99.90;;;;;;2257216;26;20006;-68
2024/04/13 03:42:48;;;;;;;8.80;5.25;;;16.00;99.90;;;;;;2259486;26;20002;-69
2024/04/13 03:43:49;;;;;;;10.27;5.50;;;16.00;99.90;;;;;;2259975;26;19998;-69
2024/04/13 03:44:50;;;;;;;10.13;5.38;;;16.00;99.90;;;;;;2247017;26;19999;-69
2024/04/13 03:45:54;;;;;;;6.63;4.75;;;16.00;99.90;;;;;;2245922;26;20035;-69
2024/04/13 03:46:55;;;;;;;11.63;5.43;;;16.00;99.90;;;;;;2259956;26;20335;-71
2024/04/13 03:47:56;;;;;;;9.05;5.38;;;16.00;99.90;;;;;;2258234;26;20009;-69
2024/04/13 03:48:58;;;;;;;7.32;5.13;;;16.00;99.90;;;;;;2261179;26;20014;-69
2024/04/13 03:49:59;;;;;;;7.30;5.20;;;16.00;99.90;;;;;;2258076;26;19999;-70
2024/04/13 03:51:03;;;;;;;6.60;4.93;;;16.00;99.90;;;;;;2260682;26;20017;-69
2024/04/13 03:52:04;;;;;;;6.70;4.90;;;16.00;99.90;;;;;;2260448;26;20010;-69
2024/04/13 03:53:04;;;;;;;7.20;5.07;;;16.00;99.90;;;;;;2259487;26;19994;-70
2024/04/13 03:54:05;;;;;;;7.13;5.15;;;15.90;99.90;;;;;;2259263;26;20375;-70
2024/04/13 03:55:05;;;;;;;7.97;5.00;;;15.90;99.90;;;;;;2260251;26;19998;-71
2024/04/13 03:56:06;;;;;;;6.93;5.57;;;15.90;99.90;;;;;;2260663;26;20014;-71
2024/04/13 03:57:07;;;;;;;6.97;4.90;;;15.90;99.90;;;;;;2258029;26;20038;-71
2024/04/13 03:58:07;;;;;;;9.55;6.00;;;15.90;99.90;;;;;;2258379;26;20017;-71
2024/04/13 03:59:08;;;;;;;10.82;5.40;;;15.90;99.90;;;;;;2260068;26;20022;-71
2024/04/13 04:00:09;;;;;;;10.50;5.30;;;15.90;99.90;;;;;;2259231;26;20055;-71
2024/04/13 04:01:10;;;;;;;5.63;5.05;;;15.90;99.90;;;;;;2259964;26;20609;-71
2024/04/13 04:02:11;;;;;;;7.50;5.18;;;15.90;99.90;;;;;;2257631;26;20031;-71
2024/04/13 04:03:12;;;;;;;10.65;6.15;;;15.90;99.90;;;;;;2260412;26;20002;-71
2024/04/13 04:04:12;;;;;;;6.93;5.05;;;15.90;99.90;;;;;;2260045;26;19999;-71
2024/04/13 04:05:13;;;;;;;7.07;5.40;;;15.90;99.90;;;;;;2260153;26;20005;-71
2024/04/13 04:06:13;;;;;;;7.97;5.25;;;15.90;99.90;;;;;;2260073;26;20078;-71
2024/04/13 04:07:14;;;;;;;6.95;5.40;;;15.90;99.90;;;;;;2258287;26;20075;-71
2024/04/13 04:08:14;;;;;;;9.30;6.22;;;15.80;99.90;;;;;;2259149;26;20427;-71
2024/04/13 04:09:15;;;;;;;9.18;5.13;;;15.80;99.90;;;;;;2258340;26;20028;-71
2024/04/13 04:10:16;;;;;;;6.97;5.28;;;15.80;99.90;;;;;;2258075;26;20021;-71
2024/04/13 04:11:16;;;;;;;8.13;5.65;;;15.80;99.90;;;;;;2261446;26;20082;-71
2024/04/13 04:12:17;;;;;;;7.72;5.70;;;15.80;99.90;;;;;;2257729;26;20012;-71
2024/04/13 04:13:17;;;;;;;6.47;5.70;;;15.80;99.90;;;;;;2261477;26;19994;-71
2024/04/13 04:14:18;;;;;;;8.68;5.15;;;15.80;99.90;;;;;;2262293;26;20014;-71
2024/04/13 04:15:18;;;;;;;8.00;5.32;;;15.80;99.90;;;;;;2246233;26;20007;-71
2024/04/13 04:16:19;;;;;;;9.65;6.30;;;15.80;99.90;;;;;;2245508;26;20002;-71
2024/04/13 04:17:19;;;;;;;9.10;6.00;;;15.80;99.90;;;;;;2256651;26;20093;-71
2024/04/13 04:18:20;;;;;;;10.07;5.28;;;15.70;99.90;;;;;;2260466;26;20002;-71
2024/04/13 04:19:22;;;;;;;8.52;5.55;;;15.70;99.90;;;;;;2260714;26;19995;-71
2024/04/13 04:20:22;;;;;;;8.95;5.55;;;15.70;99.90;;;;;;2258342;26;20013;-71
2024/04/13 04:21:24;;;;;;;10.02;5.80;;;15.70;99.90;;;;;;2260551;26;19997;-71
2024/04/13 04:22:26;;;;;;;9.32;5.28;;;15.70;99.90;;;;;;2260695;26;20003;-72
2024/04/13 04:23:27;;;;;;;8.38;5.57;;;15.70;99.90;;;;;;2257226;26;20017;-71
2024/04/13 04:24:27;;;;;;;9.95;5.30;;;15.70;99.90;;;;;;2257528;26;20005;-71
2024/04/13 04:25:31;;;;;;;7.68;5.60;;;15.70;99.90;;;;;;2241128;26;20331;-71
2024/04/13 04:26:31;;;;;;;10.73;6.10;;;15.70;99.90;;;;;;2245114;26;20019;-71
2024/04/13 04:27:32;;;;;;;12.23;5.28;;;15.70;99.90;;;;;;2260399;26;20025;-71
2024/04/13 04:28:32;;;;;;;9.63;6.20;;;15.70;99.90;;;;;;2260719;26;20018;-71
2024/04/13 04:29:34;;;;;;;12.45;6.25;;;15.60;99.90;;;;;;2249965;26;20759;-72
2024/04/13 04:30:34;;;;;;;11.15;6.35;;;15.70;99.90;;;;;;2249958;26;20002;-71
2024/04/13 04:31:35;;;;;;;7.25;5.50;;;15.60;99.90;;;;;;2249013;26;20003;-71
2024/04/13 04:32:35;;;;;;;7.63;5.65;;;15.70;99.90;;;;;;2259985;26;20045;-71
2024/04/13 04:33:36;;;;;;;7.55;5.68;;;15.60;99.90;;;;;;2259737;26;20017;-72
2024/04/13 04:34:36;;;;;;;7.40;5.72;;;15.60;99.90;;;;;;2259870;26;20002;-72
2024/04/13 04:35:37;;;;;;;7.93;5.70;;;15.70;99.90;;;;;;2257565;26;20012;-71
2024/04/13 04:36:39;;;;;;;8.60;5.40;;;15.60;99.90;;;;;;2259863;26;20458;-71
2024/04/13 04:37:40;;;;;;;8.23;6.20;;;15.60;99.90;;;;;;2245326;26;20502;-72
2024/04/13 04:38:40;;;;;;;7.95;5.47;;;15.60;99.90;;;;;;2244659;26;20731;-71
2024/04/13 04:39:41;;;;;;;8.65;6.03;;;15.60;99.90;;;;;;2256835;26;20507;-71
2024/04/13 04:40:41;;;;;;;10.18;5.80;;;15.60;99.90;;;;;;2260892;26;20009;-71
2024/04/13 04:41:42;;;;;;;7.85;5.68;;;15.60;99.90;;;;;;2260972;26;20002;-71
2024/04/13 04:42:43;;;;;;;9.73;5.85;;;15.60;99.90;;;;;;2252047;26;20332;-71
2024/04/13 04:43:43;;;;;;;8.38;5.97;;;15.60;99.90;;;;;;2249588;26;20003;-71
2024/04/13 04:44:44;;;;;;;10.02;6.13;;;15.60;99.90;;;;;;2259622;26;20002;-72
2024/04/13 04:45:44;;;;;;;10.05;5.60;;;15.60;99.90;;;;;;2259807;26;20446;-71
2024/04/13 04:46:45;;;;;;;7.68;5.97;;;15.60;99.90;;;;;;2262251;26;20505;-71
2024/04/13 04:47:47;;;;;;;9.75;5.13;;;15.60;99.90;;;;;;2233058;26;20012;-71
2024/04/13 04:48:51;;;;;;;6.78;5.03;;;15.60;99.90;;;;;;2237306;26;20925;-72
2024/04/13 04:49:52;;;;;;;6.72;5.40;;;15.50;99.90;;;;;;2257669;26;19998;-72
2024/04/13 04:50:58;;;;;;;9.70;6.13;;;15.50;99.90;;;;;;2258578;26;20068;-72
2024/04/13 04:51:59;;;;;;;8.80;5.13;;;15.50;99.90;;;;;;2260090;26;20404;-72
2024/04/13 04:53:01;;;;;;;7.25;5.45;;;15.50;99.90;;;;;;2259353;26;19998;-71
2024/04/13 04:54:01;;;;;;;7.93;6.10;;;15.50;99.90;;;;;;2259922;26;19994;-71
2024/04/13 04:55:04;;;;;;;6.78;5.80;;;15.50;99.90;;;;;;2257409;26;20018;-71
2024/04/13 04:56:04;;;;;;;9.07;5.57;;;15.50;99.90;;;;;;2256174;26;20097;-71
2024/04/13 04:57:05;;;;;;;7.20;5.53;;;15.50;99.90;;;;;;2261649;26;20020;-72
2024/04/13 04:58:06;;;;;;;8.25;5.82;;;15.50;99.90;;;;;;2257748;26;20002;-71
2024/04/13 04:59:06;;;;;;;9.07;6.05;;;15.50;99.90;;;;;;2261138;26;20002;-71
2024/04/13 05:00:13;;;;;;;8.38;5.78;;;15.50;99.90;;;;;;2250903;26;20438;-71
2024/04/13 05:01:14;;;;;;;8.45;5.97;;;15.60;99.90;;;;;;2250619;26;20002;-72
2024/04/13 05:02:15;;;;;;;9.13;5.85;;;15.50;99.90;;;;;;2259308;26;20010;-72
2024/04/13 05:03:15;;;;;;;9.35;5.78;;;15.50;99.90;;;;;;2260225;26;19999;-71
2024/04/13 05:04:17;;;;;;;9.77;5.63;;;15.60;99.90;;;;;;2258764;26;20106;-71
2024/04/13 05:05:17;;;;;;;10.10;5.80;;;15.60;99.90;;;;;;2245383;26;20011;-71
2024/04/13 05:06:20;;;;;;;7.95;6.55;;;15.50;99.90;;;;;;2244533;26;20435;-71
2024/04/13 05:07:21;;;;;;;8.90;6.03;;;15.50;99.90;;;;;;2261683;26;20034;-71
2024/04/13 05:08:21;;;;;;;6.82;5.40;;;15.60;99.90;;;;;;2257024;26;20002;-71
2024/04/13 05:09:22;;;;;;;11.95;6.22;;;15.60;99.90;;;;;;2258769;26;20018;-71
2024/04/13 05:10:22;;;;;;;10.20;6.47;;;15.60;99.90;;;;;;2256334;26;19999;-72
2024/04/13 05:11:23;;;;;;;8.25;5.85;;;15.60;99.90;;;;;;2257697;26;19994;-71
2024/04/13 05:12:23;;;;;;;12.85;6.68;;;15.60;99.90;;;;;;2249476;26;20080;-71
2024/04/13 05:13:24;;;;;;;6.82;5.53;;;15.60;99.90;;;;;;2249296;26;20010;-71
2024/04/13 05:14:24;;;;;;;12.20;6.07;;;15.60;99.90;;;;;;2258376;26;20070;-71
2024/04/13 05:15:25;;;;;;;11.85;6.03;;;15.60;99.90;;;;;;2258080;26;19995;-71
2024/04/13 05:16:25;;;;;;;9.30;5.50;;;15.60;99.90;;;;;;2260440;26;20018;-71
2024/04/13 05:17:26;;;;;;;9.13;5.82;;;15.60;99.90;;;;;;2258122;26;20001;-72